createdAt,value
2018-05-02T00:02:38.232Z,1.30
2018-05-02T00:07:40.892Z,1.30
2018-05-02T00:12:43.636Z,1.13
2018-05-02T00:17:46.164Z,1.13
2018-05-02T00:22:48.702Z,1.83
2018-05-02T00:27:51.497Z,1.27
2018-05-02T00:32:54.294Z,1.00
2018-05-02T00:37:56.838Z,1.10
2018-05-02T00:42:59.551Z,1.20
2018-05-02T00:48:02.124Z,1.40
2018-05-02T00:53:04.652Z,1.03
2018-05-02T00:58:07.965Z,1.03
2018-05-02T01:03:10.716Z,1.00
2018-05-02T01:08:13.335Z,1.30
2018-05-02T01:13:15.860Z,1.20
2018-05-02T01:18:18.578Z,1.17
2018-05-02T01:23:21.913Z,1.10
2018-05-02T01:28:24.461Z,1.10
2018-05-02T01:33:27.228Z,1.00
2018-05-02T01:38:29.803Z,1.10
2018-05-02T01:43:32.934Z,0.90
2018-05-02T01:48:35.500Z,1.23
2018-05-02T01:53:38.177Z,0.97
2018-05-02T01:58:40.871Z,0.93
2018-05-02T02:03:44.161Z,1.30
2018-05-02T02:08:46.883Z,1.20
2018-05-02T02:13:49.425Z,1.00
2018-05-02T02:18:51.971Z,1.00
2018-05-02T02:23:55.254Z,1.00
2018-05-02T02:28:57.826Z,0.90
2018-05-02T02:34:00.373Z,0.87
2018-05-02T02:39:03.716Z,0.93
2018-05-02T02:44:06.239Z,0.90
2018-05-02T02:49:08.802Z,0.83
2018-05-02T02:54:11.854Z,1.10
2018-05-02T02:59:14.430Z,0.77
2018-05-02T03:04:17.052Z,1.10
2018-05-02T03:09:19.687Z,0.80
2018-05-02T03:14:22.211Z,1.00
2018-05-02T03:19:24.756Z,1.10
2018-05-02T03:24:28.039Z,1.10
2018-05-02T03:29:30.658Z,0.60
2018-05-02T03:34:33.360Z,0.93
2018-05-02T03:39:36.855Z,0.90
2018-05-02T03:44:39.381Z,0.83
2018-05-02T03:49:41.915Z,0.70
2018-05-02T03:54:44.487Z,0.77
2018-05-02T03:59:58.968Z,0.93
2018-05-02T04:05:13.272Z,0.83
2018-05-02T04:10:16.003Z,0.70
2018-05-02T04:15:18.632Z,0.60
2018-05-02T04:20:21.476Z,0.70
2018-05-02T04:25:24.774Z,0.80
2018-05-02T04:30:28.090Z,0.60
2018-05-02T04:35:30.834Z,0.63
2018-05-02T04:40:33.381Z,0.80
2018-05-02T04:45:36.011Z,0.60
2018-05-02T04:50:39.347Z,0.80
2018-05-02T04:55:41.991Z,0.90
2018-05-02T05:00:44.615Z,0.83
2018-05-02T05:05:47.542Z,0.70
2018-05-02T05:10:50.218Z,0.70
2018-05-02T05:15:53.676Z,0.63
2018-05-02T05:20:56.758Z,0.70
2018-05-02T05:25:59.358Z,1.97
2018-05-02T05:31:01.953Z,1.77
2018-05-02T05:36:04.641Z,0.90
2018-05-02T05:41:07.233Z,1.57
2018-05-02T05:46:10.505Z,0.93
2018-05-02T05:51:13.090Z,0.97
2018-05-02T05:56:17.256Z,1.13
2018-05-02T06:01:20.572Z,1.50
2018-05-02T06:06:23.372Z,1.50
2018-05-02T06:11:27.088Z,1.60
2018-05-02T06:16:30.522Z,1.30
2018-05-02T06:21:33.884Z,1.00
2018-05-02T06:26:36.652Z,2.70
2018-05-02T06:31:39.337Z,1.30
2018-05-02T06:36:42.719Z,1.27
2018-05-02T06:41:45.640Z,1.40
2018-05-02T06:46:48.266Z,1.30
2018-05-02T06:51:50.850Z,1.60
2018-05-02T06:56:53.439Z,1.50
2018-05-02T07:01:57.233Z,1.40
2018-05-02T07:06:59.773Z,1.40
2018-05-02T07:12:02.308Z,1.30
2018-05-02T07:17:04.881Z,1.30
2018-05-02T07:22:07.772Z,1.37
2018-05-02T07:27:10.792Z,1.40
2018-05-02T07:32:13.526Z,1.17
2018-05-02T07:37:16.124Z,1.33
2018-05-02T07:42:18.744Z,1.30
2018-05-02T07:47:21.258Z,1.60
2018-05-02T07:52:23.839Z,1.40
2018-05-02T07:57:27.659Z,1.27
2018-05-02T08:02:30.344Z,1.50
2018-05-02T08:07:33.678Z,1.47
2018-05-02T08:12:36.265Z,1.40
2018-05-02T08:17:38.826Z,1.00
2018-05-02T08:22:41.422Z,1.37
2018-05-02T08:27:43.961Z,1.33
2018-05-02T08:32:46.836Z,1.60
2018-05-02T08:37:50.594Z,1.50
2018-05-02T08:42:53.211Z,1.20
2018-05-02T08:47:55.902Z,1.30
2018-05-02T08:52:58.497Z,1.30
2018-05-02T08:58:01.130Z,1.37
2018-05-02T09:03:03.714Z,1.77
2018-05-02T09:08:06.346Z,1.07
2018-05-02T09:13:09.813Z,1.30
2018-05-02T09:18:12.479Z,1.23
2018-05-02T09:23:15.636Z,1.23
2018-05-02T09:28:18.961Z,1.40
2018-05-02T09:33:21.673Z,1.60
2018-05-02T09:38:24.232Z,1.27
2018-05-02T09:43:27.739Z,1.30
2018-05-02T09:48:30.355Z,1.83
2018-05-02T09:53:33.047Z,0.93
2018-05-02T09:58:35.603Z,1.20
2018-05-02T10:03:38.435Z,1.20
2018-05-02T10:08:41.072Z,1.37
2018-05-02T10:13:43.589Z,1.23
2018-05-02T10:18:46.681Z,1.50
2018-05-02T10:23:49.207Z,1.23
2018-05-02T10:28:51.914Z,1.20
2018-05-02T10:33:54.494Z,0.87
2018-05-02T10:38:58.025Z,1.47
2018-05-02T10:44:00.625Z,1.13
2018-05-02T10:49:04.800Z,2.00
2018-05-02T10:54:07.386Z,1.20
2018-05-02T10:59:10.806Z,1.50
2018-05-02T11:04:13.436Z,1.10
2018-05-02T11:09:16.089Z,1.60
2018-05-02T11:14:18.671Z,1.27
2018-05-02T11:19:21.920Z,1.20
2018-05-02T11:24:24.488Z,1.50
2018-05-02T11:29:28.117Z,1.47
2018-05-02T11:34:31.030Z,1.40
2018-05-02T11:39:33.576Z,1.10
2018-05-02T11:44:36.223Z,1.50
2018-05-02T11:49:38.807Z,1.87
2018-05-02T11:54:41.708Z,1.63
2018-05-02T11:59:45.043Z,1.83
2018-05-02T12:04:47.646Z,1.87
2018-05-02T12:09:50.372Z,1.63
2018-05-02T12:14:53.395Z,1.30
2018-05-02T12:19:56.020Z,1.73
2018-05-02T12:24:59.447Z,1.80
2018-05-02T12:30:02.098Z,1.50
2018-05-02T12:35:05.729Z,1.50
2018-05-02T12:40:08.845Z,1.63
2018-05-02T12:45:12.774Z,1.53
2018-05-02T12:50:16.077Z,1.37
2018-05-02T12:55:19.285Z,1.60
2018-05-02T13:00:21.929Z,1.60
2018-05-02T13:05:24.536Z,1.70
2018-05-02T13:10:27.117Z,1.93
2018-05-02T13:15:30.017Z,1.60
2018-05-02T13:20:32.771Z,1.63
2018-05-02T13:25:35.699Z,1.60
2018-05-02T13:30:39.039Z,1.40
2018-05-02T13:35:41.602Z,1.77
2018-05-02T13:40:44.369Z,1.83
2018-05-02T13:45:46.975Z,1.87
2018-05-02T13:50:49.548Z,1.50
2018-05-02T13:55:52.226Z,1.60
2018-05-02T14:00:55.112Z,1.43
2018-05-02T14:05:57.751Z,1.53
2018-05-02T14:11:01.841Z,1.90
2018-05-02T14:16:04.449Z,1.33
2018-05-02T14:21:07.032Z,1.50
2018-05-02T14:26:10.369Z,1.17
2018-05-02T14:31:14.636Z,1.40
2018-05-02T14:36:17.441Z,1.50
2018-05-02T14:41:19.981Z,1.63
2018-05-02T14:46:22.510Z,1.40
2018-05-02T14:51:25.225Z,1.53
2018-05-02T14:56:27.806Z,1.47
2018-05-02T15:01:30.420Z,1.40
2018-05-02T15:06:33.234Z,1.40
2018-05-02T15:11:35.853Z,1.50
2018-05-02T15:16:38.455Z,2.03
2018-05-02T15:21:41.259Z,1.87
2018-05-02T15:26:44.057Z,1.40
2018-05-02T15:31:46.671Z,1.40
2018-05-02T15:36:49.237Z,1.20
2018-05-02T15:41:51.794Z,1.73
2018-05-02T15:46:54.385Z,1.30
2018-05-02T15:51:57.040Z,1.67
2018-05-02T15:56:59.688Z,1.63
2018-05-02T16:02:02.245Z,1.40
2018-05-02T16:07:04.860Z,1.63
2018-05-02T16:12:09.102Z,1.70
2018-05-02T16:17:11.678Z,1.60
2018-05-02T16:22:14.294Z,1.97
2018-05-02T16:27:17.204Z,1.13
2018-05-02T16:32:19.846Z,1.20
2018-05-02T16:37:22.418Z,1.30
2018-05-02T16:42:24.988Z,1.80
2018-05-02T16:47:27.701Z,1.53
2018-05-02T16:52:30.343Z,1.47
2018-05-02T16:57:32.924Z,1.47
2018-05-02T17:02:36.319Z,1.60
2018-05-02T17:07:38.882Z,2.00
2018-05-02T17:12:41.606Z,1.43
2018-05-02T17:17:44.401Z,1.47
2018-05-02T17:22:47.406Z,1.27
2018-05-02T17:27:50.773Z,1.60
2018-05-02T17:32:53.413Z,1.57
2018-05-02T17:37:56.726Z,1.57
2018-05-02T17:43:00.194Z,1.50
2018-05-02T17:48:03.671Z,1.53
2018-05-02T17:53:06.208Z,1.60
2018-05-02T17:58:08.762Z,1.63
2018-05-02T18:03:11.660Z,1.67
2018-05-02T18:08:15.136Z,1.50
2018-05-02T18:13:17.693Z,1.37
2018-05-02T18:18:20.356Z,1.27
2018-05-02T18:23:23.643Z,1.30
2018-05-02T18:28:27.251Z,1.60
2018-05-02T18:33:29.825Z,1.33
2018-05-02T18:38:32.701Z,1.67
2018-05-02T18:43:35.427Z,1.67
2018-05-02T18:48:38.127Z,1.67
2018-05-02T18:53:41.316Z,1.40
2018-05-02T18:58:44.054Z,1.37
2018-05-02T19:03:47.176Z,1.40
2018-05-02T19:08:50.218Z,1.80
2018-05-02T19:13:58.540Z,1.97
2018-05-02T19:19:10.149Z,2.00
2018-05-02T19:24:12.809Z,2.60
2018-05-02T19:29:15.947Z,2.13
2018-05-02T19:34:19.337Z,1.90
2018-05-02T19:39:22.262Z,1.40
2018-05-02T19:44:25.750Z,1.47
2018-05-02T19:49:28.790Z,1.97
2018-05-02T19:54:31.401Z,1.50
2018-05-02T19:59:34.038Z,1.70
2018-05-02T20:04:36.856Z,2.20
2018-05-02T20:09:45.680Z,3.00
2018-05-02T20:14:49.129Z,2.50
2018-05-02T20:19:52.594Z,1.80
2018-05-02T20:24:55.973Z,1.70
2018-05-02T20:29:58.741Z,1.80
2018-05-02T20:35:01.454Z,2.20
2018-05-02T20:40:04.257Z,2.00
2018-05-02T20:45:06.801Z,2.37
2018-05-02T20:50:09.377Z,2.60
2018-05-02T20:55:12.655Z,3.00
2018-05-02T21:00:15.237Z,2.83
2018-05-02T21:05:17.804Z,2.40
2018-05-02T21:10:20.488Z,2.60
2018-05-02T21:15:23.092Z,2.70
2018-05-02T21:20:25.735Z,2.50
2018-05-02T21:25:28.956Z,2.67
2018-05-02T21:30:31.553Z,2.03
2018-05-02T21:35:34.860Z,2.40
2018-05-02T21:40:37.509Z,2.10
2018-05-02T21:45:40.153Z,2.13
2018-05-02T21:50:43.783Z,2.20
2018-05-02T21:55:46.944Z,1.90
2018-05-02T22:00:49.796Z,1.80
2018-05-02T22:05:52.408Z,2.17
2018-05-02T22:10:55.077Z,1.40
2018-05-02T22:15:57.626Z,2.17
2018-05-02T22:21:00.280Z,2.37
2018-05-02T22:26:02.848Z,1.70
2018-05-02T22:31:06.197Z,1.70
2018-05-02T22:36:08.755Z,1.40
2018-05-02T22:41:11.731Z,1.73
2018-05-02T22:46:14.320Z,1.87
2018-05-02T22:51:16.901Z,1.50
2018-05-02T22:56:19.431Z,1.43
2018-05-02T23:01:21.988Z,1.60
2018-05-02T23:06:24.524Z,1.60
2018-05-02T23:11:27.084Z,1.43
2018-05-02T23:16:29.611Z,1.40
2018-05-02T23:21:33.709Z,1.67
2018-05-02T23:26:36.235Z,1.53
2018-05-02T23:31:38.750Z,1.70
2018-05-02T23:36:42.146Z,1.40
2018-05-02T23:41:45.588Z,1.20
2018-05-02T23:46:48.884Z,1.50
2018-05-02T23:51:51.414Z,1.47
2018-05-02T23:56:54.093Z,1.13
